Terminal Aerodrome Forecast
Issued by NWS

Home | Current Version | Previous Version | Text Only | Print | Product List | Glossary On
Versions: 1 2 3 4 5 6 7 8 9 10 11 12 13 14 15 16 17 18 19 20 21 22 23 24 25 26 27 28 29 30 31 32 33
000
FTUS43 KGRB 290500
TAFRHI
TAF
KRHI 290520Z 2906/3006 21008KT P6SM BKN250
     FM290800 20011G17KT P6SM BKN120 WS016/21045KT
     FM291200 21015G25KT 5SM -SN SCT040 BKN080 WS020/21045KT
      TEMPO 2912/2916 1 1/2SM -SNPL SCT012 BKN025
     FM291900 23016G32KT P6SM -RASN OVC025
     FM292200 28022G33KT P6SM BKN040
     FM300200 29012G19KT P6SM SCT040=

USA.gov is the U.S. government's official web portal to all federal, state and local government web resources and services.